Portada
METAR-TAF:

METAR-TAF

Aeropuertos :

Aeropuerto Internacional de Györ-Pér

Győr, Hungría

latitud: 47-37-28N, longitud: 017-48-49E, altitud: 129 m

Observación

El informe se hizo hace 44 minutos, a las 02:45 UTC
Viento 6 kt del oeste
Temperatura 9°C
Humedad 100%
Presión 1016 hPa
Visibilidad: 5000 m
neblina

METAR: LHPR 010245Z AUTO 27006KT 5000 BR NSC 09/09 Q1016

Hora: 05:29 (03:29 UTC)

Pronóstico

El informe se hizo hace 1 hora y 14 minutos, a las 02:15 UTC
Pronóstico válido del 01 a las 03 UTC al 01 a las 12 UTC
Viento 8 kt del oeste-noroeste
Visibilidad 10 km o más
sin nubes por debajo de 1500 m y sin presencia de cumulonimbus.
Evolucionando progresivamente
del 01 a las 07 UTC al 01 a las 10 UTC
Cielo nuboso a una altura de 3500 ft
Evolucionando progresivamente
del 01 a las 09 UTC al 01 a las 12 UTC
Viento 14 kt del norte

TAF: LHPR 010215Z 0103/0112 30008KT CAVOK BECMG 0107/0110 BKN035 BECMG 0109/0112 35014KT

Observaciones y pronósticos meteorológicos de más de 4000 aeropuertos (mensajes METAR y TAF).

Los puntos amarillos y rojos representan las estaciones disponibles.

Ponga el ratón en el punto deseado para ver el nombre de la estación.

Haga clic para ver las observaciones y los pronósticos meteorológicos.

Para cambiar el mapa : haga clic en los botones verdes con una cruz de color negro para hacer un zoom, en el botón verde con un guión para alejar o en las flechas verdes para mapas adyacentes.


METAR-TAF: